KGFA/GFA METAR and TAF weather

Enter ICAO airport designator
Station Type Date Time Source
KGFA METAR 2019/06/17 03:58 UTC NOAA

KGFA 170358Z AUTO 04011KT 10SM -SHRA OVC065 17/08 A3004 RMK AO2 RAB19E29SHRAB29E41SHRAB53 SLP168 T01700078 $


Station Type Date Time Source
KGFA Decoded METAR 2019/06/17 03:58 UTC NOAA

Malmstrom Air Force Base, MT, United States (KGFA) 47-30N 111-11W
Jun 16, 2019 - 11:58 PM EDT / 2019.06.17 0358 UTC
Wind: from the NE (040 degrees) at 13 MPH (11 KT):0
Visibility: 10 mile(s):0
Sky conditions: overcast
Weather: light rain showers
Temperature: 62.6 F (17.0 C)
Dew Point: 46.0 F (7.8 C)
Relative Humidity: 54%
Pressure (altimeter): 30.04 in. Hg (1017 hPa)
ob: KGFA 170358Z AUTO 04011KT 10SM -SHRA OVC065 17/08 A3004 RMK AO2 RAB19E29SHRAB29E41SHRAB53 SLP168 T01700078
cycle: 4

Station Type Date Time Source
KGFA TAF 2019/06/17 03:09 UTC NOAA

TAF KGFA 170303Z 1703/1809 VRB06KT 9999 SCT080 BKN100 QNH3002INS
BECMG 1718/1719 VRB06KT 9999 VCSH BKN080 QNH3003INS
BECMG 1804/1805 VRB06KT 9999 NSW SCT050 BKN080 QNH2995INS TX24/1721Z TN10/1712Z

Example: see airport list